createdAt,value
2023-05-18T00:01:18.886Z,9.88
2023-05-18T00:03:45.405Z,9.96
2023-05-18T00:06:13.145Z,10.01
2023-05-18T00:08:39.678Z,9.82
2023-05-18T00:11:07.123Z,9.89
2023-05-18T00:13:33.662Z,9.91
2023-05-18T00:16:00.233Z,9.95
2023-05-18T00:18:26.838Z,10.01
2023-05-18T00:20:53.378Z,10.06
2023-05-18T00:23:19.906Z,10.03
2023-05-18T00:25:47.397Z,10.06
2023-05-18T00:28:13.945Z,10.08
2023-05-18T00:30:40.856Z,9.97
2023-05-18T00:33:09.379Z,9.83
2023-05-18T00:35:36.410Z,9.89
2023-05-18T00:38:03.082Z,9.60
2023-05-18T00:40:29.722Z,9.70
2023-05-18T00:42:56.236Z,9.69
2023-05-18T00:45:22.683Z,9.72
2023-05-18T00:47:49.107Z,9.76
2023-05-18T00:50:15.795Z,9.76
2023-05-18T00:52:42.173Z,9.79
2023-05-18T00:55:08.579Z,9.89
2023-05-18T00:57:35.008Z,9.86
2023-05-18T01:00:01.870Z,9.80
2023-05-18T01:02:30.740Z,9.83
2023-05-18T01:04:57.471Z,9.86
2023-05-18T01:07:24.899Z,9.89
2023-05-18T01:09:54.141Z,9.84
2023-05-18T01:12:20.537Z,9.80
2023-05-18T01:14:48.132Z,9.64
2023-05-18T01:17:15.009Z,9.51
2023-05-18T01:19:41.530Z,9.39
2023-05-18T01:22:10.387Z,9.42
2023-05-18T01:24:39.254Z,9.46
2023-05-18T01:27:08.164Z,9.44
2023-05-18T01:29:36.953Z,9.44
2023-05-18T01:32:03.476Z,9.48
2023-05-18T01:34:30.115Z,9.43
2023-05-18T01:36:56.571Z,9.39
2023-05-18T01:39:23.868Z,9.34
2023-05-18T01:41:52.453Z,9.33
2023-05-18T01:44:18.834Z,9.25
2023-05-18T01:46:45.406Z,9.19
2023-05-18T01:49:11.824Z,9.21
2023-05-18T01:51:40.485Z,9.11
2023-05-18T01:54:06.988Z,9.17
2023-05-18T01:56:33.522Z,9.12
2023-05-18T01:59:00.011Z,9.12
2023-05-18T02:01:26.459Z,9.13
2023-05-18T02:03:53.238Z,9.15
2023-05-18T02:06:20.303Z,9.10
2023-05-18T02:08:46.853Z,9.02
2023-05-18T02:11:13.667Z,9.04
2023-05-18T02:13:42.324Z,8.95
2023-05-18T02:16:11.206Z,8.98
2023-05-18T02:18:37.696Z,8.95
2023-05-18T02:21:04.373Z,9.00
2023-05-18T02:23:31.400Z,9.01
2023-05-18T02:25:58.645Z,8.97
2023-05-18T02:28:25.126Z,8.89
2023-05-18T02:30:52.075Z,8.87
2023-05-18T02:33:18.840Z,8.82
2023-05-18T02:35:45.825Z,8.84
2023-05-18T02:38:12.335Z,8.80
2023-05-18T02:40:38.761Z,8.77
2023-05-18T02:43:05.281Z,8.77
2023-05-18T02:45:31.881Z,8.73
2023-05-18T02:47:58.464Z,8.63
2023-05-18T02:50:24.976Z,8.49
2023-05-18T02:52:52.493Z,8.41
2023-05-18T02:55:19.152Z,8.35
2023-05-18T02:57:45.572Z,8.41
2023-05-18T03:00:12.256Z,8.29
2023-05-18T03:02:38.837Z,8.27
2023-05-18T03:05:05.677Z,8.29
2023-05-18T03:07:32.325Z,8.35
2023-05-18T03:09:58.861Z,8.36
2023-05-18T03:12:25.300Z,8.36
2023-05-18T03:14:51.684Z,8.36
2023-05-18T03:17:19.139Z,8.41
2023-05-18T03:19:48.137Z,8.37
2023-05-18T03:22:15.661Z,8.33
2023-05-18T03:24:42.285Z,8.32
2023-05-18T03:27:08.855Z,8.34
2023-05-18T03:29:35.608Z,8.37
2023-05-18T03:32:03.572Z,8.38
2023-05-18T03:34:30.653Z,8.35
2023-05-18T03:36:57.145Z,8.29
2023-05-18T03:39:23.600Z,8.32
2023-05-18T03:41:50.721Z,8.34
2023-05-18T03:44:17.967Z,8.39
2023-05-18T03:46:44.941Z,8.31
2023-05-18T03:49:11.441Z,8.35
2023-05-18T03:51:37.859Z,8.27
2023-05-18T03:54:04.288Z,8.28
2023-05-18T03:56:30.776Z,8.28
2023-05-18T03:58:57.228Z,8.19
2023-05-18T04:01:26.067Z,8.25
2023-05-18T04:03:52.692Z,8.26
2023-05-18T04:06:19.148Z,8.30
2023-05-18T04:08:45.577Z,8.31
2023-05-18T04:11:14.314Z,8.25
2023-05-18T04:13:41.102Z,8.28
2023-05-18T04:16:07.661Z,8.31
2023-05-18T04:18:35.209Z,8.28
2023-05-18T04:21:01.805Z,8.27
2023-05-18T04:23:28.245Z,8.27
2023-05-18T04:25:54.969Z,8.23
2023-05-18T04:28:21.493Z,8.26
2023-05-18T04:30:47.899Z,8.29
2023-05-18T04:33:14.527Z,8.27
2023-05-18T04:35:41.186Z,8.18
2023-05-18T04:38:10.834Z,8.21
2023-05-18T04:40:39.745Z,8.28
2023-05-18T04:43:06.120Z,8.25
2023-05-18T04:45:37.234Z,8.18
2023-05-18T04:48:04.921Z,8.31
2023-05-18T04:50:31.840Z,8.33
2023-05-18T04:52:58.873Z,8.22
2023-05-18T04:55:25.469Z,8.24
2023-05-18T04:57:52.702Z,8.18
2023-05-18T05:00:19.252Z,8.17
2023-05-18T05:02:45.856Z,8.25
2023-05-18T05:05:12.778Z,8.37
2023-05-18T05:07:39.414Z,8.46
2023-05-18T05:10:05.990Z,8.46
2023-05-18T05:12:33.214Z,8.38
2023-05-18T05:14:59.701Z,8.53
2023-05-18T05:17:27.249Z,8.64
2023-05-18T05:19:53.809Z,8.71
2023-05-18T05:22:21.313Z,8.74
2023-05-18T05:24:47.751Z,8.77
2023-05-18T05:27:19.619Z,8.90
2023-05-18T05:29:47.135Z,9.01
2023-05-18T05:32:13.664Z,9.11
2023-05-18T05:34:40.221Z,9.12
2023-05-18T05:37:06.652Z,9.08
2023-05-18T05:39:33.117Z,9.06
2023-05-18T05:41:59.826Z,9.03
2023-05-18T05:44:28.782Z,9.07
2023-05-18T05:46:55.325Z,9.26
2023-05-18T05:49:21.981Z,9.33
2023-05-18T05:51:48.553Z,9.38
2023-05-18T05:54:15.618Z,9.59
2023-05-18T05:56:42.094Z,9.70
2023-05-18T05:59:08.776Z,9.73
2023-05-18T06:01:35.329Z,9.67
2023-05-18T06:04:03.984Z,9.87
2023-05-18T06:06:30.908Z,10.09
2023-05-18T06:08:57.444Z,10.31
2023-05-18T06:11:23.946Z,10.40
2023-05-18T06:13:50.442Z,10.21
2023-05-18T06:16:17.006Z,10.16
2023-05-18T06:18:43.859Z,10.00
2023-05-18T06:21:15.263Z,10.10
2023-05-18T06:23:42.195Z,10.35
2023-05-18T06:26:08.626Z,10.38
2023-05-18T06:28:35.056Z,10.52
2023-05-18T06:31:02.252Z,10.23
2023-05-18T06:33:28.770Z,10.26
2023-05-18T06:35:55.229Z,10.30
2023-05-18T06:38:21.640Z,10.42
2023-05-18T06:40:48.091Z,10.53
2023-05-18T06:43:14.526Z,10.48
2023-05-18T06:45:41.087Z,10.72
2023-05-18T06:48:07.565Z,10.91
2023-05-18T06:50:34.346Z,11.07
2023-05-18T06:53:01.603Z,11.12
2023-05-18T06:55:28.105Z,11.12
2023-05-18T06:57:54.543Z,11.19
2023-05-18T07:00:21.005Z,11.27
2023-05-18T07:02:47.733Z,11.05
2023-05-18T07:05:14.179Z,11.03
2023-05-18T07:07:41.274Z,10.95
2023-05-18T07:10:07.966Z,10.79
2023-05-18T07:12:36.599Z,10.53
2023-05-18T07:15:03.015Z,10.62
2023-05-18T07:17:29.450Z,10.91
2023-05-18T07:19:59.528Z,11.27
2023-05-18T07:22:26.012Z,11.69
2023-05-18T07:24:52.468Z,12.00
2023-05-18T07:27:19.082Z,12.04
2023-05-18T07:29:45.748Z,12.05
2023-05-18T07:32:12.187Z,12.12
2023-05-18T07:34:38.690Z,12.13
2023-05-18T07:37:05.300Z,12.19
2023-05-18T07:39:32.778Z,11.92
2023-05-18T07:41:59.258Z,11.66
2023-05-18T07:44:25.780Z,11.91
2023-05-18T07:46:52.702Z,12.26
2023-05-18T07:49:19.633Z,12.65
2023-05-18T07:51:48.465Z,12.71
2023-05-18T07:54:15.344Z,12.90
2023-05-18T07:56:41.949Z,13.13
2023-05-18T07:59:08.436Z,13.40
2023-05-18T08:01:35.020Z,13.23
2023-05-18T08:04:02.291Z,12.78
2023-05-18T08:06:29.535Z,12.59
2023-05-18T08:08:56.073Z,11.95
2023-05-18T08:11:22.492Z,11.60
2023-05-18T08:13:49.625Z,11.23
2023-05-18T08:16:16.193Z,11.52
2023-05-18T08:18:42.722Z,12.00
2023-05-18T08:21:09.132Z,12.00
2023-05-18T10:41:15.888Z,14.62
2023-05-18T10:43:44.527Z,14.78
2023-05-18T10:46:10.958Z,15.10
2023-05-18T10:48:37.572Z,14.83
2023-05-18T10:51:04.456Z,14.72
2023-05-18T10:53:30.896Z,15.04
2023-05-18T10:55:57.382Z,15.25
2023-05-18T10:58:24.392Z,15.43
2023-05-18T11:00:50.845Z,15.82
2023-05-18T11:03:18.347Z,15.83
2023-05-18T11:05:44.756Z,15.45
2023-05-18T11:08:12.093Z,15.39
2023-05-18T11:10:38.821Z,15.32
2023-05-18T11:13:06.275Z,15.38
2023-05-18T11:15:33.050Z,14.30
2023-05-18T11:17:59.966Z,14.77
2023-05-18T11:20:26.443Z,15.00
2023-05-18T11:22:52.874Z,14.90
2023-05-18T11:25:19.305Z,15.15
2023-05-18T11:27:45.932Z,15.47
2023-05-18T11:32:41.128Z,15.32
2023-05-18T11:35:07.616Z,15.53
2023-05-18T11:37:35.063Z,15.26
2023-05-18T11:40:04.545Z,15.51
2023-05-18T11:42:36.329Z,15.56
2023-05-18T11:45:02.864Z,15.20
2023-05-18T11:47:29.321Z,15.32
2023-05-18T11:49:55.872Z,14.87
2023-05-18T11:52:22.388Z,15.31
2023-05-18T11:54:49.060Z,15.01
2023-05-18T11:57:15.632Z,14.77
2023-05-18T11:59:42.005Z,14.64
2023-05-18T12:02:09.319Z,14.20
2023-05-18T12:04:35.895Z,14.29
2023-05-18T12:07:02.303Z,14.59
2023-05-18T12:09:28.746Z,14.69
2023-05-18T12:11:55.546Z,14.87
2023-05-18T12:14:21.943Z,14.94
2023-05-18T12:16:48.363Z,14.78
2023-05-18T12:19:14.864Z,14.52
2023-05-18T12:21:41.307Z,14.64
2023-05-18T12:24:08.519Z,14.88
2023-05-18T12:26:34.879Z,14.36
2023-05-18T12:29:01.957Z,14.83
2023-05-18T12:31:28.454Z,14.85
2023-05-18T12:33:56.791Z,15.09
2023-05-18T12:36:25.022Z,15.21
2023-05-18T12:38:51.676Z,14.94
2023-05-18T12:41:18.302Z,15.27
2023-05-18T12:43:44.739Z,15.38
2023-05-18T12:46:13.540Z,15.23
2023-05-18T12:48:40.315Z,15.52
2023-05-18T12:51:06.752Z,14.67
2023-05-18T12:53:34.345Z,14.87
2023-05-18T12:56:00.775Z,15.02
2023-05-18T12:58:27.217Z,14.81
2023-05-18T13:00:53.946Z,14.70
2023-05-18T13:03:20.509Z,14.35
2023-05-18T13:05:49.694Z,14.42
2023-05-18T13:08:16.332Z,14.68
2023-05-18T13:10:42.706Z,14.06
2023-05-18T13:13:09.163Z,14.55
2023-05-18T13:15:35.872Z,14.85
2023-05-18T13:18:02.467Z,14.84
2023-05-18T13:20:28.893Z,15.04
2023-05-18T13:22:57.958Z,15.34
2023-05-18T13:25:24.503Z,15.23
2023-05-18T13:27:53.255Z,14.45
2023-05-18T13:30:21.934Z,14.43
2023-05-18T13:32:48.854Z,14.80
2023-05-18T13:35:15.284Z,15.08
2023-05-18T13:37:41.955Z,15.53
2023-05-18T13:40:08.435Z,15.99
2023-05-18T13:42:35.112Z,16.05
2023-05-18T13:45:01.529Z,16.29
2023-05-18T13:47:29.034Z,15.94
2023-05-18T13:49:55.897Z,15.79
2023-05-18T13:52:22.387Z,15.84
2023-05-18T13:54:49.147Z,15.91
2023-05-18T13:57:19.060Z,15.30
2023-05-18T13:59:46.884Z,15.38
2023-05-18T14:02:13.588Z,15.61
2023-05-18T14:04:40.206Z,15.91
2023-05-18T14:07:06.945Z,15.67
2023-05-18T14:09:33.693Z,15.56
2023-05-18T14:12:00.373Z,15.42
2023-05-18T14:14:26.813Z,15.11
2023-05-18T14:16:53.439Z,15.64
2023-05-18T14:19:22.266Z,15.17
2023-05-18T14:21:48.710Z,14.47
2023-05-18T14:24:15.312Z,14.79
2023-05-18T14:26:42.282Z,14.68
2023-05-18T14:29:12.986Z,15.16
2023-05-18T14:31:39.856Z,15.62
2023-05-18T14:34:09.967Z,15.49
2023-05-18T14:36:36.332Z,15.80
2023-05-18T14:39:02.685Z,15.66
2023-05-18T14:41:29.209Z,15.86
2023-05-18T14:43:56.610Z,16.07
2023-05-18T14:46:23.079Z,16.12
2023-05-18T14:48:50.745Z,15.86
2023-05-18T14:51:18.312Z,15.50
2023-05-18T14:53:45.693Z,15.49
2023-05-18T14:56:12.115Z,15.70
2023-05-18T14:58:38.604Z,15.49
2023-05-18T15:01:05.252Z,14.68
2023-05-18T15:03:31.808Z,15.03
2023-05-18T15:05:58.356Z,15.28
2023-05-18T15:08:25.171Z,15.54
2023-05-18T15:10:51.602Z,15.57
2023-05-18T15:13:18.102Z,15.88
2023-05-18T15:15:44.820Z,15.75
2023-05-18T15:18:11.302Z,15.16
2023-05-18T15:20:39.682Z,15.16
2023-05-18T15:23:09.473Z,15.31
2023-05-18T15:25:36.240Z,15.35
2023-05-18T15:28:02.661Z,15.15
2023-05-18T15:30:29.197Z,15.06
2023-05-18T15:32:55.923Z,15.38
2023-05-18T15:35:22.736Z,15.63
2023-05-18T15:37:49.327Z,14.70
2023-05-18T15:40:15.841Z,14.63
2023-05-18T15:42:42.279Z,14.56
2023-05-18T15:45:08.902Z,14.73
2023-05-18T15:47:35.939Z,14.81
2023-05-18T15:50:02.402Z,14.48
2023-05-18T15:52:28.846Z,14.47
2023-05-18T15:54:55.718Z,14.53
2023-05-18T15:57:22.367Z,14.73
2023-05-18T15:59:48.908Z,14.51
2023-05-18T16:02:15.717Z,14.65
2023-05-18T16:04:42.459Z,14.81
2023-05-18T16:07:09.124Z,14.87
2023-05-18T16:09:35.798Z,14.85
2023-05-18T16:12:02.476Z,15.01
2023-05-18T16:14:28.904Z,15.20
2023-05-18T16:16:55.396Z,15.05
2023-05-18T16:19:21.921Z,15.16
2023-05-18T16:21:48.700Z,15.28
2023-05-18T16:24:17.200Z,15.26
2023-05-18T16:26:43.556Z,15.32
2023-05-18T16:29:10.146Z,15.04
2023-05-18T16:31:36.768Z,14.85
2023-05-18T16:34:03.422Z,14.85
2023-05-18T16:36:30.174Z,14.86
2023-05-18T16:38:57.236Z,14.76
2023-05-18T16:41:23.618Z,14.59
2023-05-18T16:43:49.991Z,14.82
2023-05-18T16:46:18.999Z,15.03
2023-05-18T16:48:45.372Z,15.02
2023-05-18T16:51:11.792Z,15.12
2023-05-18T16:53:38.248Z,15.06
2023-05-18T16:56:04.807Z,14.92
2023-05-18T16:58:31.292Z,14.91
2023-05-18T17:00:57.817Z,14.99
2023-05-18T17:03:24.643Z,14.97
2023-05-18T17:05:51.279Z,15.09
2023-05-18T17:08:17.743Z,14.97
2023-05-18T17:10:44.243Z,15.08
2023-05-18T17:13:10.743Z,14.98
2023-05-18T17:15:37.337Z,15.06
2023-05-18T17:18:03.819Z,15.10
2023-05-18T17:20:31.466Z,15.27
2023-05-18T17:22:59.894Z,15.37
2023-05-18T17:25:27.809Z,15.41
2023-05-18T17:27:55.706Z,15.16
2023-05-18T17:30:22.984Z,14.79
2023-05-18T17:32:49.466Z,14.82
2023-05-18T17:35:16.927Z,14.79
2023-05-18T17:37:43.478Z,14.70
2023-05-18T17:40:10.016Z,14.75
2023-05-18T17:42:36.433Z,14.53
2023-05-18T17:45:02.866Z,14.35
2023-05-18T17:47:29.630Z,14.35
2023-05-18T17:49:56.176Z,14.23
2023-05-18T17:52:22.639Z,14.18
2023-05-18T17:54:49.217Z,14.19
2023-05-18T17:57:15.649Z,14.19
2023-05-18T17:59:42.107Z,14.17
2023-05-18T18:02:09.070Z,14.04
2023-05-18T18:04:35.503Z,14.13
2023-05-18T18:07:02.229Z,14.15
2023-05-18T18:09:29.473Z,14.10
2023-05-18T18:11:55.951Z,14.10
2023-05-18T18:14:22.331Z,13.97
2023-05-18T18:16:49.021Z,14.07
2023-05-18T18:19:15.874Z,13.60
2023-05-18T18:21:42.485Z,13.77
2023-05-18T18:24:09.010Z,13.87
2023-05-18T18:26:35.758Z,13.87
2023-05-18T18:29:09.655Z,13.96
2023-05-18T18:31:36.214Z,13.85
2023-05-18T18:34:02.818Z,13.70
2023-05-18T18:36:29.229Z,13.59
2023-05-18T18:38:55.970Z,13.56
2023-05-18T18:41:22.358Z,13.34
2023-05-18T18:43:48.777Z,13.38
2023-05-18T18:46:15.251Z,13.50
2023-05-18T18:48:42.242Z,13.59
2023-05-18T18:51:09.698Z,13.38
2023-05-18T18:53:38.397Z,13.29
2023-05-18T18:56:04.883Z,13.14
2023-05-18T18:58:31.279Z,13.20
2023-05-18T19:00:58.267Z,13.30
2023-05-18T19:03:27.118Z,13.38
2023-05-18T19:05:53.718Z,13.41
2023-05-18T19:08:20.240Z,13.27
2023-05-18T19:10:46.917Z,13.29
2023-05-18T19:13:13.642Z,13.23
2023-05-18T19:15:40.936Z,13.20
2023-05-18T19:18:10.591Z,13.11
2023-05-18T19:20:37.011Z,13.11
2023-05-18T19:23:03.731Z,13.08
2023-05-18T19:25:30.857Z,13.12
2023-05-18T19:28:00.266Z,12.97
2023-05-18T19:30:27.762Z,13.03
2023-05-18T19:32:54.278Z,13.11
2023-05-18T19:35:20.942Z,13.08
2023-05-18T19:37:47.497Z,12.95
2023-05-18T19:40:14.110Z,12.88
2023-05-18T19:42:40.493Z,12.84
2023-05-18T19:45:06.979Z,12.82
2023-05-18T19:47:33.515Z,12.83
2023-05-18T19:50:00.310Z,12.91
2023-05-18T19:52:27.951Z,12.83
2023-05-18T19:55:05.734Z,12.88
2023-05-18T19:57:32.878Z,12.95
2023-05-18T19:59:59.302Z,12.93
2023-05-18T20:02:25.977Z,13.03
2023-05-18T20:04:54.732Z,13.05
2023-05-18T22:23:00.463Z,12.59
2023-05-18T22:34:00.949Z,12.40
2023-05-18T22:42:22.653Z,12.32
2023-05-18T22:50:09.434Z,12.24
2023-05-18T23:12:42.581Z,11.98
2023-05-18T23:15:23.009Z,11.87
2023-05-18T23:46:08.233Z,11.24
2023-05-18T23:51:24.027Z,11.13
2023-05-18T23:56:38.558Z,11.14
2023-05-18T23:59:05.813Z,11.09
